Huvudsida
METAR-TAF:

METAR-TAF

Flygplatser :

Amsterdam, Nederländerna

Amsterdam-Schiphols flygplats

latitud: 52-18N, longitud: 004-46E, höjd: -4 m

Aktuellt väderrapport

Denna rapport gjordes för 15 timmar och 58 minuter sedan, klockan 14:55 UTC
Vind 7 kt från nord/nordost, varierande mellan nord och ost/nordost
Temperatur 4°C
Fuktighet 75%
Tryck 1019 hPa
Sikt: 8000 m
Få moln på en höjd av 4500 ft

METAR: EHAM 201455Z 03007KT 360V070 8000 FEW045 04/M00 Q1019 TEMPO 7000

Tid: 07:53 (06:53 UTC)

Väderprognos

Denna rapport gjordes för 20 timmar och 24 minuter sedan, klockan 10:29 UTC
Prognos gäller från 20 kl. 12 UTC till 21 kl. 18 UTC
Vind 7 kt från ost
Sikt 10 km eller mer
Inga moln under 1 500 m eller inga cumulonimbus
Blir
från 20 kl. 14 UTC till 20 kl. 16 UTC
Vind 5 kt från nordost
Sannolikhet 30% :
Temporärt
från 20 kl. 21 UTC till 21 kl. 08 UTC
Sikt: 4000 m
fuktdis

TAF: EHAM 201029Z 2012/2118 09007KT CAVOK BECMG 2014/2016 04005KT PROB30 TEMPO 2021/2108 4000 BR NSC

Aktuella väderrapporter och prognoser från 4000 flygplatser (METAR- och TAF-rapporter).

De tillgängliga stationerna syns som gula och röda prickar på kartan.

För musen över prickarna för att se namnen på stationerna.

Klicka sedan för att få väderrapporter och prognoser.

För att ändra kartan: Klicka på de gröna knapparna med ett svart kors på för att zooma in; den gröna knappen med ett streck på för att zooma ut; eller på de gröna pilarna för angränsande kartor.


METAR-TAF: